Time;durP1;ratioP1;P1;durP2;ratioP2;P2;SDS_P1;SDS_P2;PMS_P1;PMS_P2;Temp;Humidity;BMP_temperature;BMP_pressure;BME280_temperature;BME280_humidity;BME280_pressure;Samples;Min_cycle;Max_cycle;Signal;HPM_P1;HPM_P2
2023/10/03 00:00:22;;;;;;;7.25;4.10;;;23.10;48.50;;;;;;352442;28;1038;-55
2023/10/03 00:00:33;;;;;;;5.95;3.95;;;23.10;48.50;;;;;;352423;28;1074;-55
2023/10/03 00:00:44;;;;;;;6.45;3.78;;;23.10;48.50;;;;;;352420;28;1576;-55
2023/10/03 00:00:56;;;;;;;7.70;3.67;;;23.10;48.50;;;;;;352437;28;1641;-55
2023/10/03 00:01:07;;;;;;;7.97;3.58;;;23.10;48.50;;;;;;352478;28;812;-55
2023/10/03 00:01:18;;;;;;;7.22;3.90;;;23.10;48.60;;;;;;352448;28;815;-55
2023/10/03 00:01:29;;;;;;;7.50;4.00;;;23.10;48.50;;;;;;352230;28;1910;-55
2023/10/03 00:01:40;;;;;;;7.25;4.18;;;23.10;48.50;;;;;;352382;28;1506;-56
2023/10/03 00:01:51;;;;;;;5.65;3.85;;;23.10;48.50;;;;;;352439;28;1007;-55
2023/10/03 00:02:03;;;;;;;5.70;3.72;;;23.10;48.60;;;;;;352409;28;1081;-55
2023/10/03 00:02:14;;;;;;;7.57;3.55;;;23.10;48.60;;;;;;352365;28;1130;-55
2023/10/03 00:02:27;;;;;;;8.32;3.80;;;23.10;48.60;;;;;;352346;28;1543;-55
2023/10/03 00:02:38;;;;;;;8.40;4.00;;;23.10;48.70;;;;;;352424;28;1122;-54
2023/10/03 00:02:55;;;;;;;6.97;3.80;;;23.10;48.60;;;;;;352378;28;1909;-54
2023/10/03 00:03:08;;;;;;;5.35;3.67;;;23.10;48.60;;;;;;352472;28;832;-55
2023/10/03 00:03:19;;;;;;;5.95;3.70;;;23.10;48.50;;;;;;352421;28;999;-55
2023/10/03 00:03:30;;;;;;;5.20;3.80;;;23.10;48.50;;;;;;352442;28;1109;-55
2023/10/03 00:03:41;;;;;;;5.15;3.60;;;23.10;48.50;;;;;;352377;28;983;-54
2023/10/03 00:03:53;;;;;;;6.68;3.50;;;23.10;48.50;;;;;;352451;28;1011;-55
2023/10/03 00:04:07;;;;;;;6.90;3.63;;;23.10;48.50;;;;;;352446;28;937;-54
2023/10/03 00:04:19;;;;;;;6.85;3.83;;;23.10;48.60;;;;;;352269;28;1481;-55
2023/10/03 00:04:30;;;;;;;5.95;3.88;;;23.10;48.50;;;;;;352456;28;968;-55
2023/10/03 00:04:40;;;;;;;5.47;3.78;;;23.10;48.60;;;;;;352483;28;1019;-55
2023/10/03 00:04:52;;;;;;;6.85;4.00;;;23.00;48.50;;;;;;352440;28;1027;-54
2023/10/03 00:05:07;;;;;;;6.80;4.20;;;23.00;48.50;;;;;;352350;28;1083;-55
2023/10/03 00:05:22;;;;;;;5.70;4.05;;;23.10;48.50;;;;;;352473;28;1117;-55
2023/10/03 00:05:32;;;;;;;5.95;3.70;;;23.00;48.50;;;;;;352443;28;1122;-56
2023/10/03 00:05:46;;;;;;;5.97;3.55;;;23.00;48.50;;;;;;352306;28;1011;-55
2023/10/03 00:05:57;;;;;;;5.57;3.90;;;23.00;48.50;;;;;;352429;28;1003;-55
2023/10/03 00:06:09;;;;;;;5.13;3.80;;;23.00;48.60;;;;;;352425;28;1057;-55
2023/10/03 00:06:19;;;;;;;5.65;3.53;;;23.00;48.60;;;;;;352432;28;1120;-55
2023/10/03 00:06:34;;;;;;;5.90;3.40;;;23.00;48.60;;;;;;352281;28;1272;-55
2023/10/03 00:06:46;;;;;;;5.63;3.22;;;23.00;48.50;;;;;;352439;28;884;-55
2023/10/03 00:06:58;;;;;;;5.55;3.47;;;23.00;48.60;;;;;;352423;28;1007;-55
2023/10/03 00:07:09;;;;;;;5.13;3.60;;;23.00;48.60;;;;;;352479;28;895;-56
2023/10/03 00:07:20;;;;;;;5.57;3.60;;;23.00;48.60;;;;;;352278;28;1026;-55
2023/10/03 00:07:31;;;;;;;5.60;3.50;;;23.00;48.60;;;;;;352455;28;937;-56
2023/10/03 00:07:42;;;;;;;7.78;3.60;;;23.00;48.50;;;;;;352420;28;1276;-55
2023/10/03 00:07:53;;;;;;;7.25;3.45;;;23.00;48.60;;;;;;352468;28;1977;-56
2023/10/03 00:08:04;;;;;;;8.15;3.58;;;23.00;48.60;;;;;;352394;28;902;-56
2023/10/03 00:08:15;;;;;;;6.07;3.70;;;23.00;48.60;;;;;;352456;28;872;-56
2023/10/03 00:08:26;;;;;;;5.55;3.72;;;23.00;48.60;;;;;;352408;28;1027;-55
2023/10/03 00:08:38;;;;;;;7.85;3.72;;;23.00;48.60;;;;;;352479;28;1011;-56
2023/10/03 00:08:49;;;;;;;8.23;3.72;;;23.00;48.60;;;;;;352348;28;1019;-55
2023/10/03 00:09:01;;;;;;;8.50;3.65;;;23.00;48.70;;;;;;352401;28;1073;-55
2023/10/03 00:09:12;;;;;;;5.18;3.47;;;23.00;48.70;;;;;;352486;28;903;-56
2023/10/03 00:09:23;;;;;;;6.35;3.35;;;22.90;48.70;;;;;;352354;28;1508;-55
2023/10/03 00:09:35;;;;;;;5.88;3.38;;;22.90;48.70;;;;;;352320;28;1010;-56
2023/10/03 00:09:46;;;;;;;5.65;3.25;;;22.90;48.80;;;;;;352352;28;1629;-55
2023/10/03 00:09:57;;;;;;;4.30;3.10;;;22.90;48.70;;;;;;352407;28;987;-56
2023/10/03 00:10:08;;;;;;;5.13;3.45;;;23.00;48.80;;;;;;352482;28;952;-55
2023/10/03 00:10:19;;;;;;;6.15;3.67;;;22.90;48.80;;;;;;352306;28;1208;-55
2023/10/03 00:10:33;;;;;;;7.70;3.80;;;22.90;48.70;;;;;;352440;28;984;-55
2023/10/03 00:10:45;;;;;;;8.75;3.70;;;22.90;48.80;;;;;;352446;28;1059;-55
2023/10/03 00:10:56;;;;;;;8.23;3.58;;;22.90;48.80;;;;;;352328;28;1480;-55
2023/10/03 00:11:16;;;;;;;7.60;3.50;;;22.90;48.80;;;;;;352355;28;999;-56
2023/10/03 00:11:27;;;;;;;5.70;3.75;;;22.90;48.80;;;;;;352345;28;1714;-56
2023/10/03 00:11:38;;;;;;;5.37;3.90;;;22.90;48.80;;;;;;352450;28;995;-56
2023/10/03 00:11:48;;;;;;;5.68;3.75;;;22.90;48.80;;;;;;352289;28;1285;-55
2023/10/03 00:11:59;;;;;;;6.25;3.65;;;22.90;48.80;;;;;;352308;28;1393;-54
2023/10/03 00:12:10;;;;;;;5.60;3.67;;;22.90;48.80;;;;;;352371;28;1026;-55
2023/10/03 00:12:22;;;;;;;4.97;3.60;;;22.90;48.80;;;;;;352437;28;1027;-53
2023/10/03 00:12:33;;;;;;;5.13;3.63;;;22.90;48.80;;;;;;352354;28;951;-54
2023/10/03 00:12:48;;;;;;;5.93;3.77;;;22.90;48.80;;;;;;352475;28;738;-55
2023/10/03 00:12:59;;;;;;;6.45;4.05;;;22.90;48.80;;;;;;352492;28;702;-55
2023/10/03 00:13:11;;;;;;;5.80;3.90;;;22.90;48.80;;;;;;352413;28;1057;-55
2023/10/03 00:13:24;;;;;;;5.80;3.80;;;22.90;48.80;;;;;;352354;28;1098;-55
2023/10/03 00:13:35;;;;;;;6.40;3.65;;;22.90;48.80;;;;;;352410;28;1011;-54
2023/10/03 00:13:46;;;;;;;7.17;3.70;;;22.90;48.80;;;;;;352403;28;1232;-55
2023/10/03 00:13:57;;;;;;;7.45;3.72;;;22.90;48.80;;;;;;352477;28;1038;-56
2023/10/03 00:14:11;;;;;;;8.18;3.70;;;22.90;48.80;;;;;;352264;28;1003;-54
2023/10/03 00:14:22;;;;;;;6.20;3.40;;;22.90;48.80;;;;;;352413;28;1113;-54
2023/10/03 00:14:32;;;;;;;5.55;3.42;;;22.90;48.80;;;;;;352361;28;960;-56
2023/10/03 00:14:43;;;;;;;5.17;3.67;;;22.90;48.80;;;;;;352442;28;778;-54
2023/10/03 00:14:54;;;;;;;5.60;3.80;;;22.90;48.80;;;;;;352332;28;1016;-55
2023/10/03 00:15:08;;;;;;;5.95;3.88;;;22.90;48.80;;;;;;352413;28;849;-56
2023/10/03 00:15:24;;;;;;;6.43;3.80;;;22.90;48.80;;;;;;352401;28;983;-55
2023/10/03 00:15:36;;;;;;;6.70;3.88;;;22.90;48.90;;;;;;352454;28;1059;-55
2023/10/03 00:15:48;;;;;;;8.32;3.95;;;22.80;48.80;;;;;;352379;28;1011;-55
2023/10/03 00:15:59;;;;;;;8.43;3.75;;;22.90;48.90;;;;;;352463;28;1101;-56
2023/10/03 00:16:09;;;;;;;6.85;3.60;;;22.90;48.90;;;;;;352302;28;1501;-55
2023/10/03 00:16:21;;;;;;;5.67;3.57;;;22.80;48.90;;;;;;352369;28;1154;-55
2023/10/03 00:16:33;;;;;;;6.40;3.70;;;22.90;49.00;;;;;;352456;28;1098;-56
2023/10/03 00:16:44;;;;;;;6.03;3.80;;;22.80;49.00;;;;;;352410;28;999;-55
2023/10/03 00:16:55;;;;;;;8.05;3.85;;;22.90;48.90;;;;;;352463;28;1051;-56
2023/10/03 00:17:06;;;;;;;6.70;3.70;;;22.90;48.90;;;;;;352421;28;1243;-56
2023/10/03 00:17:17;;;;;;;7.30;3.53;;;22.90;48.90;;;;;;352344;28;931;-55
2023/10/03 00:17:27;;;;;;;6.80;3.65;;;22.80;48.90;;;;;;352381;28;1412;-56
2023/10/03 00:17:39;;;;;;;6.97;3.80;;;22.90;48.80;;;;;;352390;28;1240;-55
2023/10/03 00:17:50;;;;;;;6.80;3.80;;;22.90;48.80;;;;;;352419;28;1055;-55
2023/10/03 00:18:01;;;;;;;6.18;3.70;;;22.80;48.80;;;;;;352379;28;936;-55
2023/10/03 00:18:14;;;;;;;6.13;3.57;;;22.80;48.80;;;;;;352402;28;856;-55
2023/10/03 00:18:24;;;;;;;6.72;3.70;;;22.80;48.80;;;;;;352402;28;983;-55
2023/10/03 00:18:35;;;;;;;7.22;3.90;;;22.80;48.90;;;;;;352338;28;1153;-57
2023/10/03 00:18:46;;;;;;;6.57;3.80;;;22.90;48.90;;;;;;352332;28;932;-55
2023/10/03 00:18:56;;;;;;;6.85;3.65;;;22.80;48.90;;;;;;352440;28;943;-56
2023/10/03 00:19:07;;;;;;;6.32;3.47;;;22.80;48.90;;;;;;352463;28;837;-57
2023/10/03 00:19:18;;;;;;;5.63;3.63;;;22.80;48.90;;;;;;352441;28;856;-56
2023/10/03 00:19:30;;;;;;;4.15;3.53;;;22.80;49.00;;;;;;352381;28;1995;-56
2023/10/03 00:19:40;;;;;;;4.50;3.50;;;22.80;49.00;;;;;;352316;28;1335;-56
2023/10/03 00:19:51;;;;;;;5.80;3.67;;;22.80;49.00;;;;;;352345;28;1059;-55
2023/10/03 00:20:04;;;;;;;6.17;3.93;;;22.80;49.00;;;;;;352378;28;1055;-56
2023/10/03 00:20:16;;;;;;;5.53;3.88;;;22.80;49.00;;;;;;352344;28;1644;-56
2023/10/03 00:20:27;;;;;;;5.43;3.72;;;22.80;49.10;;;;;;352374;28;947;-55
2023/10/03 00:20:38;;;;;;;5.90;3.53;;;22.70;49.10;;;;;;352480;28;906;-55
2023/10/03 00:20:49;;;;;;;6.15;3.67;;;22.80;49.10;;;;;;352428;28;829;-55
2023/10/03 00:21:00;;;;;;;7.83;3.70;;;22.80;49.20;;;;;;352393;28;1070;-55
2023/10/03 00:21:12;;;;;;;7.53;3.80;;;22.80;49.20;;;;;;352311;28;1034;-56
2023/10/03 00:21:22;;;;;;;6.63;3.80;;;22.80;49.10;;;;;;352463;28;1106;-54
2023/10/03 00:21:34;;;;;;;5.20;3.75;;;22.80;49.20;;;;;;352268;28;2392;-55
2023/10/03 00:21:45;;;;;;;5.55;3.85;;;22.80;49.20;;;;;;352444;28;769;-56
2023/10/03 00:21:55;;;;;;;5.90;3.77;;;22.80;49.20;;;;;;352447;28;816;-56
2023/10/03 00:22:07;;;;;;;6.00;3.70;;;22.80;49.20;;;;;;352331;28;1062;-56
2023/10/03 00:22:19;;;;;;;5.25;3.53;;;22.80;49.20;;;;;;352471;28;1043;-57
2023/10/03 00:22:30;;;;;;;5.80;3.58;;;22.80;49.20;;;;;;352473;28;789;-55
2023/10/03 00:22:41;;;;;;;5.85;3.40;;;22.80;49.20;;;;;;352397;28;968;-56
2023/10/03 00:22:52;;;;;;;6.38;3.33;;;22.70;49.20;;;;;;352359;28;1027;-55
2023/10/03 00:23:04;;;;;;;6.85;3.40;;;22.80;49.20;;;;;;352343;28;1043;-56
2023/10/03 00:23:15;;;;;;;6.72;3.47;;;22.80;49.20;;;;;;352369;28;1209;-55
2023/10/03 00:23:26;;;;;;;5.82;3.50;;;22.70;49.10;;;;;;352307;28;1170;-54
2023/10/03 00:23:37;;;;;;;5.28;3.50;;;22.80;49.10;;;;;;352342;28;1089;-55
2023/10/03 00:23:48;;;;;;;5.13;3.63;;;22.80;49.10;;;;;;352485;28;971;-56
2023/10/03 00:24:00;;;;;;;5.35;3.67;;;22.70;49.10;;;;;;352383;28;1219;-57
2023/10/03 00:24:10;;;;;;;6.10;3.72;;;22.80;49.10;;;;;;352360;28;1473;-56
2023/10/03 00:24:21;;;;;;;8.37;3.70;;;22.70;49.00;;;;;;352328;28;1398;-55
2023/10/03 00:24:32;;;;;;;7.95;3.65;;;22.70;49.10;;;;;;352334;28;1157;-55
2023/10/03 00:24:42;;;;;;;7.43;3.65;;;22.70;49.10;;;;;;352373;28;990;-55
2023/10/03 00:24:53;;;;;;;5.90;3.53;;;22.70;49.10;;;;;;352384;28;1103;-55
2023/10/03 00:25:06;;;;;;;5.97;3.40;;;22.70;49.10;;;;;;352385;28;818;-56
2023/10/03 00:25:18;;;;;;;6.10;3.22;;;22.70;49.00;;;;;;352380;28;1229;-55
2023/10/03 00:25:30;;;;;;;6.72;3.30;;;22.80;49.00;;;;;;352363;28;1042;-55
2023/10/03 00:25:41;;;;;;;7.15;3.35;;;22.70;49.00;;;;;;352384;28;1015;-54
2023/10/03 00:25:54;;;;;;;5.68;3.42;;;22.70;49.00;;;;;;352479;28;829;-57
2023/10/03 00:26:07;;;;;;;5.75;3.53;;;22.70;49.00;;;;;;352431;28;1226;-55
2023/10/03 00:26:19;;;;;;;6.30;3.53;;;22.70;49.00;;;;;;352372;28;1090;-55
2023/10/03 00:26:31;;;;;;;5.65;3.53;;;22.70;49.10;;;;;;352462;28;1003;-56
2023/10/03 00:26:44;;;;;;;5.07;3.85;;;22.70;49.10;;;;;;352416;28;868;-54
2023/10/03 00:26:54;;;;;;;5.22;3.90;;;22.70;49.10;;;;;;352457;28;927;-56
2023/10/03 00:27:05;;;;;;;6.30;3.83;;;22.70;49.10;;;;;;352298;28;1036;-57
2023/10/03 00:27:16;;;;;;;6.32;3.75;;;22.70;49.10;;;;;;352400;28;1083;-55
2023/10/03 00:27:28;;;;;;;5.38;3.55;;;22.80;49.10;;;;;;352383;28;1557;-55
2023/10/03 00:27:39;;;;;;;4.60;3.50;;;22.70;49.10;;;;;;352406;28;1039;-55
2023/10/03 00:27:55;;;;;;;5.07;3.60;;;22.70;49.10;;;;;;352407;28;816;-56
2023/10/03 00:28:06;;;;;;;6.10;3.85;;;22.70;49.10;;;;;;352249;28;1972;-56
2023/10/03 00:28:17;;;;;;;6.85;3.83;;;22.70;49.10;;;;;;352391;28;1011;-55
2023/10/03 00:28:29;;;;;;;6.77;3.60;;;22.70;49.10;;;;;;352392;28;1086;-56
2023/10/03 00:28:40;;;;;;;7.55;3.58;;;22.70;49.10;;;;;;352472;28;948;-56
2023/10/03 00:28:51;;;;;;;7.35;3.65;;;22.70;49.10;;;;;;352307;28;1194;-55
2023/10/03 00:29:03;;;;;;;8.25;4.00;;;22.70;49.10;;;;;;352353;28;1027;-56
2023/10/03 00:29:23;;;;;;;8.00;4.40;;;22.70;49.10;;;;;;352300;28;1127;-54
2023/10/03 00:29:33;;;;;;;8.50;3.95;;;22.70;49.10;;;;;;352417;28;729;-55
2023/10/03 00:29:44;;;;;;;9.77;3.87;;;22.70;49.20;;;;;;352316;28;1024;-55
2023/10/03 00:29:55;;;;;;;9.82;3.70;;;22.70;49.20;;;;;;352406;28;1038;-55
2023/10/03 00:30:07;;;;;;;8.68;4.05;;;22.70;49.20;;;;;;352373;28;845;-56
2023/10/03 00:30:23;;;;;;;7.63;4.10;;;22.70;49.30;;;;;;352385;28;986;-56
2023/10/03 00:30:36;;;;;;;6.20;3.63;;;22.70;49.30;;;;;;352275;28;1054;-55
2023/10/03 00:30:48;;;;;;;5.75;3.58;;;22.70;49.30;;;;;;352442;28;867;-55
2023/10/03 00:30:59;;;;;;;4.63;3.72;;;22.70;49.30;;;;;;352450;28;856;-56
2023/10/03 00:31:13;;;;;;;6.90;3.72;;;22.70;49.30;;;;;;352392;28;1014;-54
2023/10/03 00:31:24;;;;;;;8.00;3.78;;;22.70;49.30;;;;;;352296;28;1151;-54
2023/10/03 00:31:35;;;;;;;8.18;3.67;;;22.70;49.30;;;;;;352441;28;896;-54
2023/10/03 00:31:46;;;;;;;6.47;3.85;;;22.70;49.30;;;;;;352486;28;1015;-56
2023/10/03 00:31:58;;;;;;;6.70;3.75;;;22.70;49.30;;;;;;352432;28;987;-55
2023/10/03 00:32:09;;;;;;;6.57;3.90;;;22.70;49.30;;;;;;352299;28;1836;-55
2023/10/03 00:32:20;;;;;;;7.55;3.95;;;22.70;49.30;;;;;;352335;28;1098;-54
2023/10/03 00:32:31;;;;;;;7.45;4.25;;;22.70;49.30;;;;;;352382;28;1059;-55
2023/10/03 00:32:44;;;;;;;7.35;4.22;;;22.70;49.30;;;;;;352422;28;1058;-55
2023/10/03 00:32:57;;;;;;;6.78;4.13;;;22.70;49.30;;;;;;352310;28;1055;-54
2023/10/03 00:33:12;;;;;;;7.15;4.18;;;22.70;49.30;;;;;;352477;28;1125;-54
2023/10/03 00:33:25;;;;;;;7.68;4.15;;;22.70;49.40;;;;;;352361;28;1784;-55
2023/10/03 00:33:36;;;;;;;7.30;3.90;;;22.70;49.30;;;;;;352433;28;990;-54
2023/10/03 00:33:47;;;;;;;6.68;3.65;;;22.70;49.30;;;;;;352347;28;915;-55
2023/10/03 00:33:58;;;;;;;6.60;3.60;;;22.70;49.30;;;;;;352371;28;963;-56
2023/10/03 00:34:08;;;;;;;8.48;3.85;;;22.70;49.30;;;;;;352367;28;1070;-55
2023/10/03 00:34:22;;;;;;;8.95;4.13;;;22.70;49.30;;;;;;352307;28;1165;-56
2023/10/03 00:34:36;;;;;;;7.43;4.05;;;22.70;49.30;;;;;;352333;28;1050;-55
2023/10/03 00:34:47;;;;;;;5.80;3.60;;;22.70;49.30;;;;;;352401;28;776;-56
2023/10/03 00:34:57;;;;;;;9.70;3.80;;;22.70;49.30;;;;;;352372;28;1007;-55
2023/10/03 00:35:09;;;;;;;10.13;3.83;;;22.70;49.30;;;;;;352403;28;1038;-56
2023/10/03 00:35:20;;;;;;;10.55;4.05;;;22.70;49.30;;;;;;352345;28;996;-56
2023/10/03 00:35:31;;;;;;;7.70;3.95;;;22.70;49.30;;;;;;352438;28;800;-56
2023/10/03 00:35:42;;;;;;;8.55;4.10;;;22.70;49.30;;;;;;352428;28;995;-54
2023/10/03 00:35:53;;;;;;;7.28;4.10;;;22.70;49.40;;;;;;352324;28;1139;-55
2023/10/03 00:36:04;;;;;;;6.07;4.00;;;22.70;49.40;;;;;;352444;28;927;-55
2023/10/03 00:36:22;;;;;;;6.15;4.00;;;22.70;49.40;;;;;;352350;28;1019;-55
2023/10/03 00:36:33;;;;;;;7.93;4.28;;;22.70;49.40;;;;;;352201;28;1187;-54
2023/10/03 00:36:44;;;;;;;7.80;4.35;;;22.70;49.40;;;;;;352366;28;999;-55
2023/10/03 00:36:54;;;;;;;7.07;4.28;;;22.70;49.40;;;;;;352274;28;1227;-55
2023/10/03 00:37:06;;;;;;;5.10;4.13;;;22.70;49.40;;;;;;352352;28;959;-55
2023/10/03 00:37:17;;;;;;;5.25;4.00;;;22.70;49.40;;;;;;352428;28;927;-56
2023/10/03 00:37:29;;;;;;;6.38;4.00;;;22.70;49.40;;;;;;352223;28;1553;-54
2023/10/03 00:37:40;;;;;;;6.55;4.03;;;22.70;49.40;;;;;;352407;28;992;-56
2023/10/03 00:37:52;;;;;;;6.75;4.20;;;22.70;49.40;;;;;;352382;28;1070;-54
2023/10/03 00:38:09;;;;;;;6.40;4.10;;;22.70;49.40;;;;;;352377;28;931;-55
2023/10/03 00:38:20;;;;;;;6.03;3.97;;;22.60;49.40;;;;;;352344;28;986;-55
2023/10/03 00:38:30;;;;;;;5.70;3.85;;;22.70;49.50;;;;;;352236;28;1437;-55
2023/10/03 00:38:41;;;;;;;5.87;3.63;;;22.60;49.50;;;;;;352431;28;1058;-55
2023/10/03 00:38:52;;;;;;;6.13;3.50;;;22.70;49.50;;;;;;352328;28;1023;-55
2023/10/03 00:39:06;;;;;;;6.88;3.58;;;22.70;49.50;;;;;;352361;28;959;-55
2023/10/03 00:39:16;;;;;;;8.60;3.92;;;22.70;49.50;;;;;;352431;28;1019;-55
2023/10/03 00:39:27;;;;;;;9.57;4.30;;;22.70;49.50;;;;;;352322;28;1034;-55
2023/10/03 00:39:38;;;;;;;8.17;4.53;;;22.70;49.50;;;;;;352416;28;835;-55
2023/10/03 00:39:49;;;;;;;7.35;4.45;;;22.70;49.50;;;;;;352365;28;1078;-55
2023/10/03 00:40:00;;;;;;;7.03;4.20;;;22.70;49.50;;;;;;352365;28;1091;-55
2023/10/03 00:40:26;;;;;;;6.13;4.00;;;22.70;49.50;;;;;;352429;28;900;-55
2023/10/03 00:40:38;;;;;;;6.00;4.05;;;22.60;49.60;;;;;;352484;28;792;-55
2023/10/03 00:40:50;;;;;;;5.63;4.13;;;22.70;49.60;;;;;;352410;28;1093;-55
2023/10/03 00:41:01;;;;;;;5.22;4.13;;;22.70;49.60;;;;;;352384;28;959;-56
2023/10/03 00:41:13;;;;;;;5.90;4.35;;;22.70;49.60;;;;;;352357;28;964;-55
2023/10/03 00:41:23;;;;;;;7.75;4.32;;;22.70;49.60;;;;;;352382;28;1125;-55
2023/10/03 00:41:35;;;;;;;7.88;4.20;;;22.60;49.60;;;;;;352162;28;2013;-55
2023/10/03 00:41:46;;;;;;;7.07;4.20;;;22.70;49.50;;;;;;352404;28;1058;-56
2023/10/03 00:42:00;;;;;;;5.75;4.13;;;22.70;49.60;;;;;;352450;28;906;-56
2023/10/03 00:42:11;;;;;;;5.63;4.15;;;22.60;49.60;;;;;;352305;28;1086;-55
2023/10/03 00:42:22;;;;;;;5.03;4.07;;;22.60;49.60;;;;;;352385;28;1007;-55
2023/10/03 00:42:32;;;;;;;5.77;3.87;;;22.60;49.60;;;;;;352358;28;944;-54
2023/10/03 00:42:46;;;;;;;7.45;4.18;;;22.60;49.70;;;;;;352365;28;1085;-55
2023/10/03 00:42:59;;;;;;;7.03;4.30;;;22.60;49.60;;;;;;352437;28;793;-55
2023/10/03 00:43:11;;;;;;;6.60;4.10;;;22.70;49.70;;;;;;352345;28;943;-56
2023/10/03 00:43:22;;;;;;;5.97;4.10;;;22.60;49.70;;;;;;352251;28;1133;-54
2023/10/03 00:43:33;;;;;;;6.38;4.05;;;22.60;49.70;;;;;;352478;28;905;-55
2023/10/03 00:44:04;;;;;;;6.53;4.15;;;22.60;49.70;;;;;;352445;28;959;-54
2023/10/03 00:44:14;;;;;;;7.18;4.13;;;22.60;49.80;;;;;;352400;28;836;-55
2023/10/03 00:44:26;;;;;;;6.95;4.20;;;22.60;49.80;;;;;;352332;28;1039;-55
2023/10/03 00:44:37;;;;;;;6.56;4.16;;;22.60;49.80;;;;;;352383;28;1354;-56
2023/10/03 00:44:48;;;;;;;6.63;4.18;;;22.60;49.80;;;;;;352381;28;1123;-56
2023/10/03 00:44:59;;;;;;;6.72;3.88;;;22.70;49.80;;;;;;352360;28;860;-56
2023/10/03 00:45:11;;;;;;;7.35;4.05;;;22.60;49.80;;;;;;352382;28;1011;-56
2023/10/03 00:45:22;;;;;;;7.47;3.95;;;22.60;49.80;;;;;;352322;28;1198;-56
2023/10/03 00:45:33;;;;;;;7.43;4.40;;;22.60;49.80;;;;;;352445;28;832;-56
2023/10/03 00:45:45;;;;;;;7.82;4.25;;;22.60;49.80;;;;;;352374;28;1306;-55
2023/10/03 00:45:55;;;;;;;7.25;4.25;;;22.60;49.80;;;;;;352398;28;835;-54
2023/10/03 00:46:07;;;;;;;6.00;4.00;;;22.60;49.80;;;;;;352369;28;1663;-54
2023/10/03 00:46:18;;;;;;;5.82;3.90;;;22.60;49.80;;;;;;352298;28;1347;-55
2023/10/03 00:46:30;;;;;;;5.55;3.85;;;22.60;49.90;;;;;;352442;28;971;-55
2023/10/03 00:46:41;;;;;;;5.45;3.90;;;22.60;49.90;;;;;;352470;28;1027;-54
2023/10/03 00:46:52;;;;;;;4.90;3.90;;;22.60;49.90;;;;;;352406;28;988;-55
2023/10/03 00:47:06;;;;;;;5.03;4.20;;;22.60;49.90;;;;;;352389;28;955;-55
2023/10/03 00:47:18;;;;;;;5.88;4.43;;;22.60;49.90;;;;;;352358;28;907;-55
2023/10/03 00:47:29;;;;;;;6.10;4.10;;;22.60;49.90;;;;;;352404;28;977;-57
2023/10/03 00:47:41;;;;;;;5.53;3.90;;;22.60;49.90;;;;;;352352;28;991;-55
2023/10/03 00:47:56;;;;;;;4.63;3.72;;;22.60;49.90;;;;;;352342;28;2514;-55
2023/10/03 00:48:08;;;;;;;6.60;3.97;;;22.60;49.90;;;;;;352383;28;830;-54
2023/10/03 00:48:21;;;;;;;7.50;4.10;;;22.60;50.00;;;;;;352433;28;991;-55
2023/10/03 00:48:32;;;;;;;6.85;3.88;;;22.60;49.90;;;;;;352429;28;1200;-55
2023/10/03 00:48:43;;;;;;;5.90;3.75;;;22.60;50.00;;;;;;352326;28;1119;-54
2023/10/03 00:48:54;;;;;;;6.38;3.95;;;22.60;50.00;;;;;;352225;28;1483;-55
2023/10/03 00:49:08;;;;;;;6.10;4.00;;;22.60;50.00;;;;;;352436;28;1003;-55
2023/10/03 00:49:19;;;;;;;5.93;4.03;;;22.60;50.00;;;;;;352400;28;849;-55
2023/10/03 00:49:31;;;;;;;6.35;4.20;;;22.60;50.00;;;;;;352449;28;1058;-55
2023/10/03 00:49:43;;;;;;;8.25;4.30;;;22.60;50.00;;;;;;352386;28;860;-55
2023/10/03 00:49:54;;;;;;;8.77;4.22;;;22.60;50.00;;;;;;352303;28;1023;-55
2023/10/03 00:50:06;;;;;;;8.73;4.23;;;22.60;50.00;;;;;;352364;28;1453;-55
2023/10/03 00:50:19;;;;;;;7.72;4.43;;;22.60;50.00;;;;;;352365;28;1054;-56
2023/10/03 00:50:31;;;;;;;6.32;4.40;;;22.60;50.00;;;;;;352396;28;1237;-55
2023/10/03 00:50:44;;;;;;;5.93;4.10;;;22.60;50.00;;;;;;352364;28;1030;-55
2023/10/03 00:50:56;;;;;;;7.38;4.05;;;22.60;50.00;;;;;;352405;28;895;-55
2023/10/03 00:51:06;;;;;;;7.28;4.00;;;22.60;50.10;;;;;;352337;28;1468;-54
2023/10/03 00:51:20;;;;;;;7.95;4.00;;;22.60;50.00;;;;;;352318;28;1357;-55
2023/10/03 00:51:31;;;;;;;6.43;3.90;;;22.60;50.10;;;;;;352293;28;1195;-55
2023/10/03 00:51:45;;;;;;;6.50;3.97;;;22.60;50.10;;;;;;352391;28;1252;-54
2023/10/03 00:51:56;;;;;;;7.45;4.05;;;22.60;50.00;;;;;;352425;28;1027;-55
2023/10/03 00:52:09;;;;;;;7.20;4.30;;;22.60;50.00;;;;;;352355;28;1122;-55
2023/10/03 00:52:20;;;;;;;6.38;4.18;;;22.60;50.00;;;;;;352310;28;1030;-55
2023/10/03 00:52:32;;;;;;;5.13;3.85;;;22.60;50.00;;;;;;352376;28;1173;-54
2023/10/03 00:52:45;;;;;;;5.32;3.83;;;22.60;50.00;;;;;;352376;28;1039;-55
2023/10/03 00:52:57;;;;;;;7.10;4.30;;;22.60;50.00;;;;;;352436;28;923;-54
2023/10/03 00:53:08;;;;;;;7.00;4.13;;;22.60;50.00;;;;;;352357;28;1153;-55
2023/10/03 00:53:19;;;;;;;6.97;4.07;;;22.50;50.00;;;;;;352273;28;1440;-55
2023/10/03 00:53:32;;;;;;;6.97;4.00;;;22.60;50.00;;;;;;352414;28;1075;-55
2023/10/03 00:53:43;;;;;;;6.18;3.88;;;22.60;50.00;;;;;;352428;28;928;-55
2023/10/03 00:53:57;;;;;;;6.88;3.95;;;22.60;50.00;;;;;;352285;28;1339;-56
2023/10/03 00:54:09;;;;;;;7.05;4.13;;;22.60;50.00;;;;;;352413;28;836;-55
2023/10/03 00:54:20;;;;;;;5.93;4.05;;;22.60;50.10;;;;;;352413;28;1133;-55
2023/10/03 00:54:32;;;;;;;5.88;3.92;;;22.60;50.10;;;;;;352339;28;1018;-55
2023/10/03 00:54:43;;;;;;;6.13;4.00;;;22.60;50.10;;;;;;352335;28;1023;-55
2023/10/03 00:54:53;;;;;;;7.60;4.20;;;22.50;50.10;;;;;;352314;28;960;-55
2023/10/03 00:55:05;;;;;;;7.50;4.15;;;22.50;50.10;;;;;;352360;28;1031;-55
2023/10/03 00:55:16;;;;;;;5.97;4.00;;;22.60;50.10;;;;;;352303;28;976;-55
2023/10/03 00:55:29;;;;;;;6.97;4.10;;;22.50;50.10;;;;;;352391;28;1030;-54
2023/10/03 00:55:43;;;;;;;7.75;4.20;;;22.60;50.10;;;;;;352433;28;1059;-55
2023/10/03 00:55:59;;;;;;;7.13;4.20;;;22.50;50.10;;;;;;352339;28;1063;-55
2023/10/03 00:56:09;;;;;;;7.65;4.20;;;22.60;50.10;;;;;;352369;28;908;-55
2023/10/03 00:56:20;;;;;;;7.20;4.10;;;22.50;50.10;;;;;;352283;28;944;-55
2023/10/03 00:56:31;;;;;;;5.75;4.00;;;22.50;50.10;;;;;;352390;28;1138;-55
2023/10/03 00:56:43;;;;;;;6.40;3.90;;;22.50;50.10;;;;;;352418;28;698;-55
2023/10/03 00:56:54;;;;;;;6.20;3.92;;;22.50;50.10;;;;;;352302;28;1228;-55
2023/10/03 00:57:04;;;;;;;5.50;3.78;;;22.50;50.10;;;;;;352430;28;900;-55
2023/10/03 00:57:16;;;;;;;4.50;3.78;;;22.50;50.10;;;;;;352330;28;979;-55
2023/10/03 00:57:27;;;;;;;4.28;3.88;;;22.50;50.10;;;;;;352274;28;1559;-56
2023/10/03 00:57:39;;;;;;;5.13;4.00;;;22.50;50.10;;;;;;352399;28;836;-55
2023/10/03 00:57:50;;;;;;;5.22;3.92;;;22.50;50.10;;;;;;352429;28;845;-54
2023/10/03 00:58:07;;;;;;;5.70;3.90;;;22.50;50.10;;;;;;352311;28;977;-56
2023/10/03 00:58:19;;;;;;;5.93;3.63;;;22.50;50.10;;;;;;352430;28;887;-55
2023/10/03 00:58:32;;;;;;;5.55;3.75;;;22.50;50.10;;;;;;352289;28;1047;-55
2023/10/03 00:58:43;;;;;;;6.45;4.20;;;22.50;50.00;;;;;;352368;28;991;-55
2023/10/03 00:58:53;;;;;;;6.10;4.05;;;22.50;50.10;;;;;;352444;28;705;-56
2023/10/03 00:59:07;;;;;;;6.87;3.90;;;22.60;50.10;;;;;;352325;28;983;-56
2023/10/03 00:59:18;;;;;;;6.35;3.83;;;22.50;50.00;;;;;;352377;28;1046;-56
2023/10/03 00:59:29;;;;;;;6.28;4.10;;;22.50;50.00;;;;;;352330;28;979;-55
2023/10/03 00:59:39;;;;;;;6.95;4.25;;;22.50;50.00;;;;;;352283;28;975;-56
2023/10/03 00:59:50;;;;;;;7.40;4.20;;;22.50;50.00;;;;;;352345;28;1107;-56
2023/10/03 01:00:05;;;;;;;7.80;4.13;;;22.50;50.00;;;;;;352259;28;1223;-56
2023/10/03 01:00:16;;;;;;;8.02;4.13;;;22.50;50.10;;;;;;352415;28;915;-56
2023/10/03 01:00:27;;;;;;;8.25;4.20;;;22.50;50.10;;;;;;352352;28;1136;-56
2023/10/03 01:00:54;;;;;;;6.75;3.88;;;22.50;50.00;;;;;;352358;28;1201;-56
2023/10/03 01:01:05;;;;;;;5.38;3.78;;;22.50;50.00;;;;;;352424;28;1094;-55
2023/10/03 01:01:17;;;;;;;5.45;3.88;;;22.50;50.10;;;;;;352389;28;1134;-55
2023/10/03 01:01:33;;;;;;;7.38;4.00;;;22.50;50.10;;;;;;352205;28;1890;-55
2023/10/03 01:01:46;;;;;;;8.48;4.20;;;22.50;50.10;;;;;;352333;28;1131;-55
2023/10/03 01:02:05;;;;;;;7.75;4.07;;;22.50;50.10;;;;;;352287;28;1093;-55
2023/10/03 01:02:21;;;;;;;6.78;3.80;;;22.50;50.10;;;;;;352288;28;1111;-55
2023/10/03 01:02:31;;;;;;;6.78;3.67;;;22.50;50.10;;;;;;352325;28;1027;-56
2023/10/03 01:02:52;;;;;;;6.68;3.80;;;22.50;50.10;;;;;;352245;28;1728;-56
2023/10/03 01:03:03;;;;;;;7.40;4.07;;;22.50;50.20;;;;;;352322;28;1099;-56
2023/10/03 01:03:28;;;;;;;7.50;3.90;;;22.50;50.10;;;;;;352339;28;1835;-54
2023/10/03 01:03:39;;;;;;;7.40;4.20;;;22.50;50.20;;;;;;352291;28;1031;-55
2023/10/03 01:03:49;;;;;;;7.53;4.10;;;22.40;50.20;;;;;;352433;28;805;-55
2023/10/03 01:04:00;;;;;;;7.18;4.07;;;22.50;50.20;;;;;;352351;28;904;-55
2023/10/03 01:04:19;;;;;;;6.93;4.07;;;22.50;50.20;;;;;;352396;28;988;-55
2023/10/03 01:04:31;;;;;;;6.88;4.20;;;22.50;50.20;;;;;;352302;28;1713;-55
2023/10/03 01:04:41;;;;;;;7.43;4.25;;;22.50;50.20;;;;;;352460;28;900;-55
2023/10/03 01:04:53;;;;;;;7.87;4.30;;;22.40;50.10;;;;;;352349;28;979;-55